sensor_id;sensor_type;location;lat;lon;timestamp;temperature;humidity
2571;DHT22;1295;51.130;6.732;2023-08-01T00:01:24;18.40;99.90
2571;DHT22;1295;51.130;6.732;2023-08-01T00:03:50;18.10;99.90
2571;DHT22;1295;51.130;6.732;2023-08-01T00:06:16;18.10;99.90
2571;DHT22;1295;51.130;6.732;2023-08-01T00:08:41;18.20;99.90
2571;DHT22;1295;51.130;6.732;2023-08-01T00:11:07;18.40;99.90
2571;DHT22;1295;51.130;6.732;2023-08-01T00:13:33;18.30;99.90
2571;DHT22;1295;51.130;6.732;2023-08-01T00:15:59;18.40;99.90
2571;DHT22;1295;51.130;6.732;2023-08-01T00:18:24;18.30;99.90
2571;DHT22;1295;51.130;6.732;2023-08-01T00:20:52;18.60;99.90
2571;DHT22;1295;51.130;6.732;2023-08-01T00:23:16;18.80;99.90
2571;DHT22;1295;51.130;6.732;2023-08-01T00:25:41;18.90;99.90
2571;DHT22;1295;51.130;6.732;2023-08-01T00:28:07;19.00;99.90
2571;DHT22;1295;51.130;6.732;2023-08-01T00:30:32;18.50;99.90
2571;DHT22;1295;51.130;6.732;2023-08-01T00:32:58;17.80;99.90
2571;DHT22;1295;51.130;6.732;2023-08-01T00:35:25;17.60;99.90
2571;DHT22;1295;51.130;6.732;2023-08-01T00:37:50;17.60;99.90
2571;DHT22;1295;51.130;6.732;2023-08-01T00:40:16;17.60;99.90
2571;DHT22;1295;51.130;6.732;2023-08-01T00:42:42;17.80;99.90
2571;DHT22;1295;51.130;6.732;2023-08-01T00:45:09;17.80;99.90
2571;DHT22;1295;51.130;6.732;2023-08-01T00:47:35;17.70;99.90
2571;DHT22;1295;51.130;6.732;2023-08-01T00:50:01;17.80;99.90
2571;DHT22;1295;51.130;6.732;2023-08-01T00:52:26;17.70;99.90
2571;DHT22;1295;51.130;6.732;2023-08-01T00:54:52;17.90;99.90
2571;DHT22;1295;51.130;6.732;2023-08-01T00:57:18;18.70;99.90
2571;DHT22;1295;51.130;6.732;2023-08-01T00:59:44;18.70;99.90
2571;DHT22;1295;51.130;6.732;2023-08-01T01:02:10;18.60;99.90
2571;DHT22;1295;51.130;6.732;2023-08-01T01:04:35;18.70;99.90
2571;DHT22;1295;51.130;6.732;2023-08-01T01:07:02;18.70;99.90
2571;DHT22;1295;51.130;6.732;2023-08-01T01:09:28;18.60;99.90
2571;DHT22;1295;51.130;6.732;2023-08-01T01:11:53;18.30;99.90
2571;DHT22;1295;51.130;6.732;2023-08-01T01:14:19;18.30;99.90
2571;DHT22;1295;51.130;6.732;2023-08-01T01:16:44;18.20;99.90
2571;DHT22;1295;51.130;6.732;2023-08-01T01:19:10;18.10;99.90
2571;DHT22;1295;51.130;6.732;2023-08-01T01:21:38;17.80;99.90
2571;DHT22;1295;51.130;6.732;2023-08-01T01:24:03;17.80;99.90
2571;DHT22;1295;51.130;6.732;2023-08-01T01:26:29;17.70;99.90
2571;DHT22;1295;51.130;6.732;2023-08-01T01:28:54;18.00;99.90
2571;DHT22;1295;51.130;6.732;2023-08-01T01:31:20;17.90;99.90
2571;DHT22;1295;51.130;6.732;2023-08-01T01:33:45;18.00;99.90
2571;DHT22;1295;51.130;6.732;2023-08-01T01:36:11;17.80;99.90
2571;DHT22;1295;51.130;6.732;2023-08-01T01:38:37;17.80;99.90
2571;DHT22;1295;51.130;6.732;2023-08-01T01:41:02;18.00;99.90
2571;DHT22;1295;51.130;6.732;2023-08-01T01:43:28;18.10;99.90
2571;DHT22;1295;51.130;6.732;2023-08-01T01:45:54;18.50;99.90
2571;DHT22;1295;51.130;6.732;2023-08-01T01:48:19;18.50;99.90
2571;DHT22;1295;51.130;6.732;2023-08-01T01:50:45;18.40;99.90
2571;DHT22;1295;51.130;6.732;2023-08-01T01:53:10;18.30;99.90
2571;DHT22;1295;51.130;6.732;2023-08-01T01:55:37;18.10;99.90
2571;DHT22;1295;51.130;6.732;2023-08-01T01:58:02;18.10;99.90
2571;DHT22;1295;51.130;6.732;2023-08-01T02:00:28;17.80;99.90
2571;DHT22;1295;51.130;6.732;2023-08-01T02:02:54;17.80;99.90
2571;DHT22;1295;51.130;6.732;2023-08-01T02:05:19;17.70;99.90
2571;DHT22;1295;51.130;6.732;2023-08-01T02:07:45;17.70;99.90
2571;DHT22;1295;51.130;6.732;2023-08-01T02:10:10;17.70;99.90
2571;DHT22;1295;51.130;6.732;2023-08-01T02:12:36;17.80;99.90
2571;DHT22;1295;51.130;6.732;2023-08-01T02:15:02;17.80;99.90
2571;DHT22;1295;51.130;6.732;2023-08-01T02:17:27;17.80;99.90
2571;DHT22;1295;51.130;6.732;2023-08-01T02:19:53;17.90;99.90
2571;DHT22;1295;51.130;6.732;2023-08-01T02:22:19;17.90;99.90
2571;DHT22;1295;51.130;6.732;2023-08-01T02:24:44;17.70;99.90
2571;DHT22;1295;51.130;6.732;2023-08-01T02:27:10;17.90;99.90
2571;DHT22;1295;51.130;6.732;2023-08-01T02:29:35;17.70;99.90
2571;DHT22;1295;51.130;6.732;2023-08-01T02:32:02;17.50;99.90
2571;DHT22;1295;51.130;6.732;2023-08-01T02:34:28;17.50;99.90
2571;DHT22;1295;51.130;6.732;2023-08-01T02:36:53;17.70;99.90
2571;DHT22;1295;51.130;6.732;2023-08-01T02:39:19;18.00;99.90
2571;DHT22;1295;51.130;6.732;2023-08-01T02:41:45;18.00;99.90
2571;DHT22;1295;51.130;6.732;2023-08-01T02:44:10;17.60;99.90
2571;DHT22;1295;51.130;6.732;2023-08-01T02:46:36;17.50;99.90
2571;DHT22;1295;51.130;6.732;2023-08-01T02:49:01;17.70;99.90
2571;DHT22;1295;51.130;6.732;2023-08-01T02:51:27;17.70;99.90
2571;DHT22;1295;51.130;6.732;2023-08-01T02:53:53;17.50;99.90
2571;DHT22;1295;51.130;6.732;2023-08-01T02:56:18;17.50;99.90
2571;DHT22;1295;51.130;6.732;2023-08-01T02:58:44;17.80;99.90
2571;DHT22;1295;51.130;6.732;2023-08-01T03:01:09;17.60;99.90
2571;DHT22;1295;51.130;6.732;2023-08-01T03:03:35;17.50;99.90
2571;DHT22;1295;51.130;6.732;2023-08-01T03:06:01;17.30;99.90
2571;DHT22;1295;51.130;6.732;2023-08-01T03:08:26;17.80;99.90
2571;DHT22;1295;51.130;6.732;2023-08-01T03:10:53;18.00;99.90
2571;DHT22;1295;51.130;6.732;2023-08-01T03:13:18;17.90;99.90
2571;DHT22;1295;51.130;6.732;2023-08-01T03:15:43;17.90;99.90
2571;DHT22;1295;51.130;6.732;2023-08-01T03:18:09;17.50;99.90
2571;DHT22;1295;51.130;6.732;2023-08-01T03:20:35;17.40;99.90
2571;DHT22;1295;51.130;6.732;2023-08-01T03:23:01;17.30;99.90
2571;DHT22;1295;51.130;6.732;2023-08-01T03:25:26;18.00;99.90
2571;DHT22;1295;51.130;6.732;2023-08-01T03:27:52;17.80;99.90
2571;DHT22;1295;51.130;6.732;2023-08-01T03:30:18;17.50;99.90
2571;DHT22;1295;51.130;6.732;2023-08-01T03:32:43;17.50;99.90
2571;DHT22;1295;51.130;6.732;2023-08-01T03:35:09;17.40;99.90
2571;DHT22;1295;51.130;6.732;2023-08-01T03:37:34;17.50;99.90
2571;DHT22;1295;51.130;6.732;2023-08-01T03:40:00;17.60;99.90
2571;DHT22;1295;51.130;6.732;2023-08-01T03:42:26;17.60;99.90
2571;DHT22;1295;51.130;6.732;2023-08-01T03:44:51;17.80;99.90
2571;DHT22;1295;51.130;6.732;2023-08-01T03:47:17;17.30;99.90
2571;DHT22;1295;51.130;6.732;2023-08-01T03:49:43;17.30;99.90
2571;DHT22;1295;51.130;6.732;2023-08-01T03:52:08;17.50;99.90
2571;DHT22;1295;51.130;6.732;2023-08-01T03:54:34;17.40;99.90
2571;DHT22;1295;51.130;6.732;2023-08-01T03:56:59;17.40;99.90
2571;DHT22;1295;51.130;6.732;2023-08-01T03:59:25;17.40;99.90
2571;DHT22;1295;51.130;6.732;2023-08-01T04:01:51;17.40;99.90
2571;DHT22;1295;51.130;6.732;2023-08-01T04:04:16;17.80;99.90
2571;DHT22;1295;51.130;6.732;2023-08-01T04:06:42;17.30;99.90
2571;DHT22;1295;51.130;6.732;2023-08-01T04:09:07;17.30;99.90
2571;DHT22;1295;51.130;6.732;2023-08-01T04:11:34;17.30;99.90
2571;DHT22;1295;51.130;6.732;2023-08-01T04:13:59;17.30;99.90
2571;DHT22;1295;51.130;6.732;2023-08-01T04:16:25;17.20;99.90
2571;DHT22;1295;51.130;6.732;2023-08-01T04:18:51;17.40;99.90
2571;DHT22;1295;51.130;6.732;2023-08-01T04:21:16;17.30;99.90
2571;DHT22;1295;51.130;6.732;2023-08-01T04:23:43;16.50;99.90
2571;DHT22;1295;51.130;6.732;2023-08-01T04:26:08;16.50;99.90
2571;DHT22;1295;51.130;6.732;2023-08-01T04:28:34;16.90;99.90
2571;DHT22;1295;51.130;6.732;2023-08-01T04:31:00;17.00;99.90
2571;DHT22;1295;51.130;6.732;2023-08-01T04:33:25;17.40;99.90
2571;DHT22;1295;51.130;6.732;2023-08-01T04:35:51;17.80;99.90
2571;DHT22;1295;51.130;6.732;2023-08-01T04:38:16;17.70;99.90
2571;DHT22;1295;51.130;6.732;2023-08-01T04:40:42;17.50;99.90
2571;DHT22;1295;51.130;6.732;2023-08-01T04:43:15;17.50;99.90
2571;DHT22;1295;51.130;6.732;2023-08-01T04:45:40;17.90;99.90
2571;DHT22;1295;51.130;6.732;2023-08-01T04:48:06;17.50;99.90
2571;DHT22;1295;51.130;6.732;2023-08-01T04:50:32;17.20;99.90
2571;DHT22;1295;51.130;6.732;2023-08-01T04:52:57;16.90;99.90
2571;DHT22;1295;51.130;6.732;2023-08-01T04:55:23;17.00;99.90
2571;DHT22;1295;51.130;6.732;2023-08-01T04:57:49;17.40;99.90
2571;DHT22;1295;51.130;6.732;2023-08-01T05:00:18;17.30;99.90
2571;DHT22;1295;51.130;6.732;2023-08-01T05:02:44;16.80;99.90
2571;DHT22;1295;51.130;6.732;2023-08-01T05:05:09;16.90;99.90
2571;DHT22;1295;51.130;6.732;2023-08-01T05:07:35;17.30;99.90
2571;DHT22;1295;51.130;6.732;2023-08-01T05:10:00;17.70;99.90
2571;DHT22;1295;51.130;6.732;2023-08-01T05:12:26;17.30;99.90
2571;DHT22;1295;51.130;6.732;2023-08-01T05:14:52;17.10;99.90
2571;DHT22;1295;51.130;6.732;2023-08-01T05:17:17;17.10;99.90
2571;DHT22;1295;51.130;6.732;2023-08-01T05:19:43;17.60;99.90
2571;DHT22;1295;51.130;6.732;2023-08-01T05:22:08;17.70;99.90
2571;DHT22;1295;51.130;6.732;2023-08-01T05:24:34;17.70;99.90
2571;DHT22;1295;51.130;6.732;2023-08-01T05:27:00;18.00;99.90
2571;DHT22;1295;51.130;6.732;2023-08-01T05:29:25;17.70;99.90
2571;DHT22;1295;51.130;6.732;2023-08-01T05:31:52;17.60;99.90
2571;DHT22;1295;51.130;6.732;2023-08-01T05:34:17;17.60;99.90
2571;DHT22;1295;51.130;6.732;2023-08-01T05:36:49;17.00;99.90
2571;DHT22;1295;51.130;6.732;2023-08-01T05:39:25;17.20;99.90
2571;DHT22;1295;51.130;6.732;2023-08-01T05:41:51;17.20;99.90
2571;DHT22;1295;51.130;6.732;2023-08-01T05:44:16;17.00;99.90
2571;DHT22;1295;51.130;6.732;2023-08-01T05:46:42;16.70;99.90
2571;DHT22;1295;51.130;6.732;2023-08-01T05:49:09;16.90;99.90
2571;DHT22;1295;51.130;6.732;2023-08-01T05:51:35;17.00;99.90
2571;DHT22;1295;51.130;6.732;2023-08-01T05:54:01;17.00;99.90
2571;DHT22;1295;51.130;6.732;2023-08-01T05:56:27;17.00;99.90
2571;DHT22;1295;51.130;6.732;2023-08-01T05:58:53;17.10;99.90
2571;DHT22;1295;51.130;6.732;2023-08-01T06:01:19;16.70;99.90
2571;DHT22;1295;51.130;6.732;2023-08-01T06:03:46;17.10;99.90
2571;DHT22;1295;51.130;6.732;2023-08-01T06:06:11;17.10;99.90
2571;DHT22;1295;51.130;6.732;2023-08-01T06:08:37;17.00;99.90
2571;DHT22;1295;51.130;6.732;2023-08-01T06:11:03;17.20;99.90
2571;DHT22;1295;51.130;6.732;2023-08-01T06:13:30;16.90;99.90
2571;DHT22;1295;51.130;6.732;2023-08-01T06:15:55;16.90;99.90
2571;DHT22;1295;51.130;6.732;2023-08-01T06:18:20;16.80;99.90
2571;DHT22;1295;51.130;6.732;2023-08-01T06:20:46;16.90;99.90
2571;DHT22;1295;51.130;6.732;2023-08-01T06:23:12;16.90;99.90
2571;DHT22;1295;51.130;6.732;2023-08-01T06:25:38;16.90;99.90
2571;DHT22;1295;51.130;6.732;2023-08-01T06:28:04;17.10;99.90
2571;DHT22;1295;51.130;6.732;2023-08-01T06:30:29;17.40;99.90
2571;DHT22;1295;51.130;6.732;2023-08-01T06:32:55;17.10;99.90
2571;DHT22;1295;51.130;6.732;2023-08-01T06:35:21;17.50;99.90
2571;DHT22;1295;51.130;6.732;2023-08-01T06:37:48;17.50;99.90
2571;DHT22;1295;51.130;6.732;2023-08-01T06:40:13;17.30;99.90
2571;DHT22;1295;51.130;6.732;2023-08-01T06:42:40;17.10;99.90
2571;DHT22;1295;51.130;6.732;2023-08-01T06:45:06;17.10;99.90
2571;DHT22;1295;51.130;6.732;2023-08-01T06:47:32;17.30;99.90
2571;DHT22;1295;51.130;6.732;2023-08-01T06:49:58;17.20;99.90
2571;DHT22;1295;51.130;6.732;2023-08-01T06:52:23;17.30;99.90
2571;DHT22;1295;51.130;6.732;2023-08-01T06:54:49;17.60;99.90
2571;DHT22;1295;51.130;6.732;2023-08-01T06:57:15;17.60;99.90
2571;DHT22;1295;51.130;6.732;2023-08-01T06:59:41;17.30;99.90
2571;DHT22;1295;51.130;6.732;2023-08-01T07:02:07;17.40;99.90
2571;DHT22;1295;51.130;6.732;2023-08-01T07:04:33;17.40;99.90
2571;DHT22;1295;51.130;6.732;2023-08-01T07:06:58;17.70;99.90
2571;DHT22;1295;51.130;6.732;2023-08-01T07:09:24;17.80;99.90
2571;DHT22;1295;51.130;6.732;2023-08-01T07:11:49;17.50;99.90
2571;DHT22;1295;51.130;6.732;2023-08-01T07:14:15;17.50;99.90
2571;DHT22;1295;51.130;6.732;2023-08-01T07:16:41;17.60;99.90
2571;DHT22;1295;51.130;6.732;2023-08-01T07:19:06;17.60;99.90
2571;DHT22;1295;51.130;6.732;2023-08-01T07:21:32;18.20;99.90
2571;DHT22;1295;51.130;6.732;2023-08-01T07:23:58;17.80;99.90
2571;DHT22;1295;51.130;6.732;2023-08-01T07:26:24;17.90;99.90
2571;DHT22;1295;51.130;6.732;2023-08-01T07:28:50;17.80;99.90
2571;DHT22;1295;51.130;6.732;2023-08-01T07:31:15;17.80;99.90
2571;DHT22;1295;51.130;6.732;2023-08-01T07:33:42;17.70;99.90
2571;DHT22;1295;51.130;6.732;2023-08-01T07:36:07;17.70;99.90
2571;DHT22;1295;51.130;6.732;2023-08-01T07:38:33;17.60;99.90
2571;DHT22;1295;51.130;6.732;2023-08-01T07:41:01;17.50;99.90
2571;DHT22;1295;51.130;6.732;2023-08-01T07:43:25;17.60;99.90
2571;DHT22;1295;51.130;6.732;2023-08-01T07:45:54;17.50;99.90
2571;DHT22;1295;51.130;6.732;2023-08-01T07:48:16;17.90;99.90
2571;DHT22;1295;51.130;6.732;2023-08-01T07:50:42;17.90;99.90
2571;DHT22;1295;51.130;6.732;2023-08-01T07:53:07;17.90;99.90
2571;DHT22;1295;51.130;6.732;2023-08-01T07:55:33;17.90;99.90
2571;DHT22;1295;51.130;6.732;2023-08-01T07:57:59;18.00;99.90
2571;DHT22;1295;51.130;6.732;2023-08-01T08:00:24;17.80;99.90
2571;DHT22;1295;51.130;6.732;2023-08-01T08:02:51;17.80;99.90
2571;DHT22;1295;51.130;6.732;2023-08-01T08:05:16;17.80;99.90
2571;DHT22;1295;51.130;6.732;2023-08-01T08:07:42;17.70;99.90
2571;DHT22;1295;51.130;6.732;2023-08-01T08:10:08;17.70;99.90
2571;DHT22;1295;51.130;6.732;2023-08-01T08:12:33;17.70;99.90
2571;DHT22;1295;51.130;6.732;2023-08-01T08:14:59;17.80;99.90
2571;DHT22;1295;51.130;6.732;2023-08-01T08:17:25;17.80;99.90
2571;DHT22;1295;51.130;6.732;2023-08-01T08:19:58;17.80;99.90
2571;DHT22;1295;51.130;6.732;2023-08-01T08:22:23;17.80;99.90
2571;DHT22;1295;51.130;6.732;2023-08-01T08:24:49;17.80;99.90
2571;DHT22;1295;51.130;6.732;2023-08-01T08:27:15;17.60;99.90
2571;DHT22;1295;51.130;6.732;2023-08-01T08:29:40;17.60;99.90
2571;DHT22;1295;51.130;6.732;2023-08-01T08:32:07;17.70;99.90
2571;DHT22;1295;51.130;6.732;2023-08-01T08:34:32;17.80;99.90
2571;DHT22;1295;51.130;6.732;2023-08-01T08:36:58;17.80;99.90
2571;DHT22;1295;51.130;6.732;2023-08-01T08:39:24;17.80;99.90
2571;DHT22;1295;51.130;6.732;2023-08-01T08:41:50;17.80;99.90
2571;DHT22;1295;51.130;6.732;2023-08-01T08:44:16;18.10;99.90
2571;DHT22;1295;51.130;6.732;2023-08-01T08:46:43;18.10;99.90
2571;DHT22;1295;51.130;6.732;2023-08-01T08:49:09;18.20;99.90
2571;DHT22;1295;51.130;6.732;2023-08-01T08:51:35;18.20;99.90
2571;DHT22;1295;51.130;6.732;2023-08-01T08:54:00;18.20;99.90
2571;DHT22;1295;51.130;6.732;2023-08-01T08:56:26;18.10;99.90
2571;DHT22;1295;51.130;6.732;2023-08-01T08:58:51;18.00;99.90
2571;DHT22;1295;51.130;6.732;2023-08-01T09:01:18;18.00;99.90
2571;DHT22;1295;51.130;6.732;2023-08-01T09:03:43;18.00;99.90
2571;DHT22;1295;51.130;6.732;2023-08-01T09:06:12;18.00;99.90
2571;DHT22;1295;51.130;6.732;2023-08-01T09:08:37;17.90;99.90
2571;DHT22;1295;51.130;6.732;2023-08-01T09:11:03;18.00;99.90
2571;DHT22;1295;51.130;6.732;2023-08-01T09:13:28;18.20;99.90
2571;DHT22;1295;51.130;6.732;2023-08-01T09:15:54;18.30;99.90
2571;DHT22;1295;51.130;6.732;2023-08-01T09:18:20;18.50;99.90
2571;DHT22;1295;51.130;6.732;2023-08-01T09:20:46;18.60;99.90
2571;DHT22;1295;51.130;6.732;2023-08-01T09:23:11;18.60;99.90
2571;DHT22;1295;51.130;6.732;2023-08-01T09:25:37;18.80;99.90
2571;DHT22;1295;51.130;6.732;2023-08-01T09:28:03;18.80;99.90
2571;DHT22;1295;51.130;6.732;2023-08-01T09:30:29;18.80;99.90
2571;DHT22;1295;51.130;6.732;2023-08-01T09:32:55;19.10;99.90
2571;DHT22;1295;51.130;6.732;2023-08-01T09:35:20;19.20;99.90
2571;DHT22;1295;51.130;6.732;2023-08-01T09:37:46;19.30;99.90
2571;DHT22;1295;51.130;6.732;2023-08-01T09:40:13;19.20;99.90
2571;DHT22;1295;51.130;6.732;2023-08-01T09:42:38;19.20;99.90
2571;DHT22;1295;51.130;6.732;2023-08-01T09:45:06;19.10;99.90
2571;DHT22;1295;51.130;6.732;2023-08-01T09:47:35;19.10;99.90
2571;DHT22;1295;51.130;6.732;2023-08-01T09:49:56;19.20;99.90
2571;DHT22;1295;51.130;6.732;2023-08-01T09:52:27;19.80;99.90
2571;DHT22;1295;51.130;6.732;2023-08-01T09:54:52;19.80;99.90
2571;DHT22;1295;51.130;6.732;2023-08-01T09:57:18;19.70;99.90
2571;DHT22;1295;51.130;6.732;2023-08-01T09:59:44;19.70;99.90
2571;DHT22;1295;51.130;6.732;2023-08-01T10:02:10;20.00;99.90
2571;DHT22;1295;51.130;6.732;2023-08-01T10:04:37;19.90;99.90
2571;DHT22;1295;51.130;6.732;2023-08-01T10:07:07;19.90;99.90
2571;DHT22;1295;51.130;6.732;2023-08-01T10:09:31;20.10;99.90
2571;DHT22;1295;51.130;6.732;2023-08-01T10:11:57;20.10;99.90
2571;DHT22;1295;51.130;6.732;2023-08-01T10:14:22;19.90;99.90
2571;DHT22;1295;51.130;6.732;2023-08-01T10:16:48;19.80;99.90
2571;DHT22;1295;51.130;6.732;2023-08-01T10:19:19;19.80;99.90
2571;DHT22;1295;51.130;6.732;2023-08-01T10:21:45;19.80;99.90
2571;DHT22;1295;51.130;6.732;2023-08-01T10:24:10;19.80;99.90
2571;DHT22;1295;51.130;6.732;2023-08-01T10:26:36;19.70;99.90
2571;DHT22;1295;51.130;6.732;2023-08-01T10:29:01;19.60;99.90
2571;DHT22;1295;51.130;6.732;2023-08-01T10:31:27;19.60;99.90
2571;DHT22;1295;51.130;6.732;2023-08-01T10:34:02;19.70;99.90
2571;DHT22;1295;51.130;6.732;2023-08-01T10:36:19;20.10;99.90
2571;DHT22;1295;51.130;6.732;2023-08-01T10:38:50;19.90;99.90
2571;DHT22;1295;51.130;6.732;2023-08-01T10:41:22;19.80;99.90
2571;DHT22;1295;51.130;6.732;2023-08-01T10:43:46;19.70;99.90
2571;DHT22;1295;51.130;6.732;2023-08-01T10:46:12;19.60;99.90
2571;DHT22;1295;51.130;6.732;2023-08-01T10:48:49;19.80;99.90
2571;DHT22;1295;51.130;6.732;2023-08-01T10:51:15;19.90;99.90
2571;DHT22;1295;51.130;6.732;2023-08-01T10:53:45;19.80;99.90
2571;DHT22;1295;51.130;6.732;2023-08-01T10:56:16;19.90;99.90
2571;DHT22;1295;51.130;6.732;2023-08-01T10:58:41;20.10;99.90
2571;DHT22;1295;51.130;6.732;2023-08-01T11:01:07;20.00;99.90
2571;DHT22;1295;51.130;6.732;2023-08-01T11:03:37;20.00;99.90
2571;DHT22;1295;51.130;6.732;2023-08-01T11:06:02;19.80;99.90
2571;DHT22;1295;51.130;6.732;2023-08-01T11:08:38;19.80;99.90
2571;DHT22;1295;51.130;6.732;2023-08-01T11:11:04;19.90;99.90
2571;DHT22;1295;51.130;6.732;2023-08-01T11:13:29;20.00;99.90
2571;DHT22;1295;51.130;6.732;2023-08-01T11:15:55;19.90;99.90
2571;DHT22;1295;51.130;6.732;2023-08-01T11:18:20;19.80;99.90
2571;DHT22;1295;51.130;6.732;2023-08-01T11:20:46;20.00;99.90
2571;DHT22;1295;51.130;6.732;2023-08-01T11:23:12;19.80;99.90
2571;DHT22;1295;51.130;6.732;2023-08-01T11:25:38;19.80;99.90
2571;DHT22;1295;51.130;6.732;2023-08-01T11:28:04;20.00;99.90
2571;DHT22;1295;51.130;6.732;2023-08-01T11:30:30;19.60;99.90
2571;DHT22;1295;51.130;6.732;2023-08-01T11:32:56;19.80;99.90
2571;DHT22;1295;51.130;6.732;2023-08-01T11:35:21;19.70;99.90
2571;DHT22;1295;51.130;6.732;2023-08-01T11:37:49;19.10;99.90
2571;DHT22;1295;51.130;6.732;2023-08-01T11:40:14;19.10;99.90
2571;DHT22;1295;51.130;6.732;2023-08-01T11:42:40;18.90;99.90
2571;DHT22;1295;51.130;6.732;2023-08-01T11:45:07;18.90;99.90
2571;DHT22;1295;51.130;6.732;2023-08-01T11:47:32;19.00;99.90
2571;DHT22;1295;51.130;6.732;2023-08-01T11:49:58;18.90;99.90
2571;DHT22;1295;51.130;6.732;2023-08-01T11:52:25;18.90;99.90
2571;DHT22;1295;51.130;6.732;2023-08-01T11:54:51;19.00;99.90
2571;DHT22;1295;51.130;6.732;2023-08-01T11:57:17;18.90;99.90
2571;DHT22;1295;51.130;6.732;2023-08-01T11:59:46;18.90;99.90
2571;DHT22;1295;51.130;6.732;2023-08-01T12:02:19;18.90;99.90
2571;DHT22;1295;51.130;6.732;2023-08-01T12:04:38;18.90;99.90
2571;DHT22;1295;51.130;6.732;2023-08-01T12:07:12;18.90;99.90
2571;DHT22;1295;51.130;6.732;2023-08-01T12:09:31;19.00;99.90
2571;DHT22;1295;51.130;6.732;2023-08-01T12:11:58;19.10;99.90
2571;DHT22;1295;51.130;6.732;2023-08-01T12:14:23;19.10;99.90
2571;DHT22;1295;51.130;6.732;2023-08-01T12:16:49;19.30;99.90
2571;DHT22;1295;51.130;6.732;2023-08-01T12:19:17;19.20;99.90
2571;DHT22;1295;51.130;6.732;2023-08-01T12:21:42;19.20;99.90
2571;DHT22;1295;51.130;6.732;2023-08-01T12:24:08;19.10;99.90
2571;DHT22;1295;51.130;6.732;2023-08-01T12:26:33;19.10;99.90
2571;DHT22;1295;51.130;6.732;2023-08-01T12:28:59;19.10;99.90
2571;DHT22;1295;51.130;6.732;2023-08-01T12:31:24;19.10;99.90
2571;DHT22;1295;51.130;6.732;2023-08-01T12:33:50;19.10;99.90
2571;DHT22;1295;51.130;6.732;2023-08-01T12:36:16;19.20;99.90
2571;DHT22;1295;51.130;6.732;2023-08-01T12:38:41;19.30;99.90
2571;DHT22;1295;51.130;6.732;2023-08-01T12:41:07;19.50;99.90
2571;DHT22;1295;51.130;6.732;2023-08-01T12:43:33;19.70;99.90
2571;DHT22;1295;51.130;6.732;2023-08-01T12:45:58;19.70;99.90
2571;DHT22;1295;51.130;6.732;2023-08-01T12:48:25;19.70;99.90
2571;DHT22;1295;51.130;6.732;2023-08-01T12:50:50;19.70;99.90
2571;DHT22;1295;51.130;6.732;2023-08-01T12:53:16;19.60;99.90
2571;DHT22;1295;51.130;6.732;2023-08-01T12:55:44;19.50;99.90
2571;DHT22;1295;51.130;6.732;2023-08-01T12:58:10;19.30;99.90
2571;DHT22;1295;51.130;6.732;2023-08-01T13:00:35;19.30;99.90
2571;DHT22;1295;51.130;6.732;2023-08-01T13:03:01;19.20;99.90
2571;DHT22;1295;51.130;6.732;2023-08-01T13:05:27;19.20;99.90
2571;DHT22;1295;51.130;6.732;2023-08-01T13:07:52;19.30;99.90
2571;DHT22;1295;51.130;6.732;2023-08-01T13:10:18;19.30;99.90
2571;DHT22;1295;51.130;6.732;2023-08-01T13:12:43;19.20;99.90
2571;DHT22;1295;51.130;6.732;2023-08-01T13:15:09;19.40;99.90
2571;DHT22;1295;51.130;6.732;2023-08-01T13:17:35;19.40;99.90
2571;DHT22;1295;51.130;6.732;2023-08-01T13:20:01;19.40;99.90
2571;DHT22;1295;51.130;6.732;2023-08-01T13:22:27;19.40;99.90
2571;DHT22;1295;51.130;6.732;2023-08-01T13:24:52;19.40;99.90
2571;DHT22;1295;51.130;6.732;2023-08-01T13:27:19;19.40;99.90
2571;DHT22;1295;51.130;6.732;2023-08-01T13:29:50;19.30;99.90
2571;DHT22;1295;51.130;6.732;2023-08-01T13:32:26;19.30;99.90
2571;DHT22;1295;51.130;6.732;2023-08-01T13:34:52;19.30;99.90
2571;DHT22;1295;51.130;6.732;2023-08-01T13:37:18;19.30;99.90
2571;DHT22;1295;51.130;6.732;2023-08-01T13:39:44;19.30;99.90
2571;DHT22;1295;51.130;6.732;2023-08-01T13:42:10;19.30;99.90
2571;DHT22;1295;51.130;6.732;2023-08-01T13:44:35;19.30;99.90
2571;DHT22;1295;51.130;6.732;2023-08-01T13:47:01;19.30;99.90
2571;DHT22;1295;51.130;6.732;2023-08-01T13:49:27;19.40;99.90
2571;DHT22;1295;51.130;6.732;2023-08-01T13:51:54;19.40;99.90
2571;DHT22;1295;51.130;6.732;2023-08-01T13:54:19;19.40;99.90
2571;DHT22;1295;51.130;6.732;2023-08-01T13:56:45;19.50;99.90
2571;DHT22;1295;51.130;6.732;2023-08-01T13:59:10;19.80;99.90
2571;DHT22;1295;51.130;6.732;2023-08-01T14:01:36;20.00;99.90
2571;DHT22;1295;51.130;6.732;2023-08-01T14:04:02;20.10;99.90
2571;DHT22;1295;51.130;6.732;2023-08-01T14:06:28;20.10;99.90
2571;DHT22;1295;51.130;6.732;2023-08-01T14:08:53;20.10;99.90
2571;DHT22;1295;51.130;6.732;2023-08-01T14:11:19;20.20;99.90
2571;DHT22;1295;51.130;6.732;2023-08-01T14:13:44;20.10;99.90
2571;DHT22;1295;51.130;6.732;2023-08-01T14:16:10;20.20;99.90
2571;DHT22;1295;51.130;6.732;2023-08-01T14:18:36;20.00;99.90
2571;DHT22;1295;51.130;6.732;2023-08-01T14:21:01;20.00;99.90
2571;DHT22;1295;51.130;6.732;2023-08-01T14:23:27;20.00;99.90
2571;DHT22;1295;51.130;6.732;2023-08-01T14:25:52;20.10;99.90
2571;DHT22;1295;51.130;6.732;2023-08-01T14:28:18;20.10;99.90
2571;DHT22;1295;51.130;6.732;2023-08-01T14:30:44;20.20;99.90
2571;DHT22;1295;51.130;6.732;2023-08-01T14:33:09;20.10;99.90
2571;DHT22;1295;51.130;6.732;2023-08-01T14:35:35;20.20;99.90
2571;DHT22;1295;51.130;6.732;2023-08-01T14:38:01;20.10;99.90
2571;DHT22;1295;51.130;6.732;2023-08-01T14:40:26;20.20;99.90
2571;DHT22;1295;51.130;6.732;2023-08-01T14:42:52;19.90;99.90
2571;DHT22;1295;51.130;6.732;2023-08-01T14:45:18;20.10;99.90
2571;DHT22;1295;51.130;6.732;2023-08-01T14:47:43;20.20;99.90
2571;DHT22;1295;51.130;6.732;2023-08-01T14:50:09;20.50;99.90
2571;DHT22;1295;51.130;6.732;2023-08-01T14:52:35;20.40;99.90
2571;DHT22;1295;51.130;6.732;2023-08-01T14:55:00;20.40;99.90
2571;DHT22;1295;51.130;6.732;2023-08-01T14:57:26;20.70;99.90
2571;DHT22;1295;51.130;6.732;2023-08-01T14:59:51;20.30;99.90
2571;DHT22;1295;51.130;6.732;2023-08-01T15:02:17;20.20;99.90
2571;DHT22;1295;51.130;6.732;2023-08-01T15:04:43;20.20;99.90
2571;DHT22;1295;51.130;6.732;2023-08-01T15:07:10;20.60;99.90
2571;DHT22;1295;51.130;6.732;2023-08-01T15:09:35;20.60;99.90
2571;DHT22;1295;51.130;6.732;2023-08-01T15:12:01;20.30;99.90
2571;DHT22;1295;51.130;6.732;2023-08-01T15:14:27;20.40;99.90
2571;DHT22;1295;51.130;6.732;2023-08-01T15:16:52;20.40;99.90
2571;DHT22;1295;51.130;6.732;2023-08-01T15:19:18;20.50;99.90
2571;DHT22;1295;51.130;6.732;2023-08-01T15:21:45;20.30;99.90
2571;DHT22;1295;51.130;6.732;2023-08-01T15:24:10;20.20;99.90
2571;DHT22;1295;51.130;6.732;2023-08-01T15:26:36;20.20;99.90
2571;DHT22;1295;51.130;6.732;2023-08-01T15:29:01;20.10;99.90
2571;DHT22;1295;51.130;6.732;2023-08-01T15:31:27;20.00;99.90
2571;DHT22;1295;51.130;6.732;2023-08-01T15:33:53;20.20;99.90
2571;DHT22;1295;51.130;6.732;2023-08-01T15:36:18;20.00;99.90
2571;DHT22;1295;51.130;6.732;2023-08-01T15:38:50;20.20;99.90
2571;DHT22;1295;51.130;6.732;2023-08-01T15:41:26;20.20;99.90
2571;DHT22;1295;51.130;6.732;2023-08-01T15:43:52;20.20;99.90
2571;DHT22;1295;51.130;6.732;2023-08-01T15:46:18;20.20;99.90
2571;DHT22;1295;51.130;6.732;2023-08-01T15:48:44;20.10;99.90
2571;DHT22;1295;51.130;6.732;2023-08-01T15:51:09;20.20;99.90
2571;DHT22;1295;51.130;6.732;2023-08-01T15:53:35;20.00;99.90